sensor_id;sensor_type;location;lat;lon;timestamp;temperature;humidity
21282;DHT22;10800;53.096;18.328;2023-03-03T00:04:48;-0.20;99.90
21282;DHT22;10800;53.096;18.328;2023-03-03T00:09:53;-0.20;99.90
21282;DHT22;10800;53.096;18.328;2023-03-03T00:14:58;-0.20;99.90
21282;DHT22;10800;53.096;18.328;2023-03-03T00:20:28;-0.20;99.90
21282;DHT22;10800;53.096;18.328;2023-03-03T00:25:33;-0.30;99.90
21282;DHT22;10800;53.096;18.328;2023-03-03T00:30:38;-0.40;99.90
21282;DHT22;10800;53.096;18.328;2023-03-03T00:35:43;-0.40;99.90
21282;DHT22;10800;53.096;18.328;2023-03-03T00:40:49;-0.40;99.90
21282;DHT22;10800;53.096;18.328;2023-03-03T00:45:55;-0.40;99.90
21282;DHT22;10800;53.096;18.328;2023-03-03T00:51:25;-0.40;99.90
21282;DHT22;10800;53.096;18.328;2023-03-03T00:56:08;-0.50;99.90
21282;DHT22;10800;53.096;18.328;2023-03-03T01:01:15;-0.40;99.90
21282;DHT22;10800;53.096;18.328;2023-03-03T01:06:21;-0.50;99.90
21282;DHT22;10800;53.096;18.328;2023-03-03T01:11:27;-0.50;99.90
21282;DHT22;10800;53.096;18.328;2023-03-03T01:16:33;-0.50;99.90
21282;DHT22;10800;53.096;18.328;2023-03-03T01:21:38;-0.50;99.90
21282;DHT22;10800;53.096;18.328;2023-03-03T01:26:44;-0.50;99.90
21282;DHT22;10800;53.096;18.328;2023-03-03T01:31:49;-0.50;99.90
21282;DHT22;10800;53.096;18.328;2023-03-03T01:36:54;-0.50;99.90
21282;DHT22;10800;53.096;18.328;2023-03-03T01:42:05;-0.60;99.90
21282;DHT22;10800;53.096;18.328;2023-03-03T01:47:21;-0.50;99.90
21282;DHT22;10800;53.096;18.328;2023-03-03T01:52:33;-0.60;99.90
21282;DHT22;10800;53.096;18.328;2023-03-03T01:57:42;-0.50;99.90
21282;DHT22;10800;53.096;18.328;2023-03-03T02:02:48;-0.60;99.90
21282;DHT22;10800;53.096;18.328;2023-03-03T02:07:53;-0.60;99.90
21282;DHT22;10800;53.096;18.328;2023-03-03T02:12:58;-0.70;99.90
21282;DHT22;10800;53.096;18.328;2023-03-03T02:18:12;-0.70;99.90
21282;DHT22;10800;53.096;18.328;2023-03-03T02:23:18;-0.70;99.90
21282;DHT22;10800;53.096;18.328;2023-03-03T02:28:26;-0.60;99.90
21282;DHT22;10800;53.096;18.328;2023-03-03T02:33:32;-0.70;99.90
21282;DHT22;10800;53.096;18.328;2023-03-03T02:38:40;-0.70;99.90
21282;DHT22;10800;53.096;18.328;2023-03-03T02:49:04;-0.60;99.90
21282;DHT22;10800;53.096;18.328;2023-03-03T02:54:11;-0.70;99.90
21282;DHT22;10800;53.096;18.328;2023-03-03T02:59:17;-0.70;99.90
21282;DHT22;10800;53.096;18.328;2023-03-03T03:04:24;-0.70;99.90
21282;DHT22;10800;53.096;18.328;2023-03-03T03:09:30;-0.70;99.90
21282;DHT22;10800;53.096;18.328;2023-03-03T03:14:35;-0.80;99.90
21282;DHT22;10800;53.096;18.328;2023-03-03T03:19:40;-0.80;99.90
21282;DHT22;10800;53.096;18.328;2023-03-03T03:24:46;-0.80;99.90
21282;DHT22;10800;53.096;18.328;2023-03-03T03:29:51;-0.80;99.90
21282;DHT22;10800;53.096;18.328;2023-03-03T03:34:57;-0.80;99.90
21282;DHT22;10800;53.096;18.328;2023-03-03T03:40:02;-0.80;99.90
21282;DHT22;10800;53.096;18.328;2023-03-03T03:45:08;-0.80;99.90
21282;DHT22;10800;53.096;18.328;2023-03-03T03:50:13;-0.80;99.90
21282;DHT22;10800;53.096;18.328;2023-03-03T03:55:18;-0.80;99.90
21282;DHT22;10800;53.096;18.328;2023-03-03T04:00:25;-0.80;99.90
21282;DHT22;10800;53.096;18.328;2023-03-03T04:05:30;-0.80;99.90
21282;DHT22;10800;53.096;18.328;2023-03-03T04:10:36;-0.80;99.90
21282;DHT22;10800;53.096;18.328;2023-03-03T04:15:41;-0.90;99.90
21282;DHT22;10800;53.096;18.328;2023-03-03T04:20:46;-0.90;99.90
21282;DHT22;10800;53.096;18.328;2023-03-03T04:25:52;-0.90;99.90
21282;DHT22;10800;53.096;18.328;2023-03-03T04:30:57;-0.90;99.90
21282;DHT22;10800;53.096;18.328;2023-03-03T04:36:02;-0.90;99.90
21282;DHT22;10800;53.096;18.328;2023-03-03T04:41:08;-0.90;99.90
21282;DHT22;10800;53.096;18.328;2023-03-03T04:46:13;-0.90;99.90
21282;DHT22;10800;53.096;18.328;2023-03-03T04:51:18;-0.90;99.90
21282;DHT22;10800;53.096;18.328;2023-03-03T04:56:23;-0.90;99.90
21282;DHT22;10800;53.096;18.328;2023-03-03T05:01:29;-0.90;99.90
21282;DHT22;10800;53.096;18.328;2023-03-03T05:06:35;-0.90;99.90
21282;DHT22;10800;53.096;18.328;2023-03-03T05:11:40;-0.90;99.90
21282;DHT22;10800;53.096;18.328;2023-03-03T05:16:45;-0.90;99.90
21282;DHT22;10800;53.096;18.328;2023-03-03T05:21:50;-0.90;99.90
21282;DHT22;10800;53.096;18.328;2023-03-03T05:26:55;-0.90;99.90
21282;DHT22;10800;53.096;18.328;2023-03-03T05:32:01;-0.90;99.90
21282;DHT22;10800;53.096;18.328;2023-03-03T05:37:06;-0.90;99.90
21282;DHT22;10800;53.096;18.328;2023-03-03T05:42:13;-0.80;99.90
21282;DHT22;10800;53.096;18.328;2023-03-03T05:47:18;-0.80;99.90
21282;DHT22;10800;53.096;18.328;2023-03-03T05:52:23;-0.80;99.90
21282;DHT22;10800;53.096;18.328;2023-03-03T05:57:28;-0.80;99.90
21282;DHT22;10800;53.096;18.328;2023-03-03T06:02:34;-0.80;99.90
21282;DHT22;10800;53.096;18.328;2023-03-03T06:07:39;-0.80;99.90
21282;DHT22;10800;53.096;18.328;2023-03-03T06:12:45;-0.80;99.90
21282;DHT22;10800;53.096;18.328;2023-03-03T06:17:50;-0.70;99.90
21282;DHT22;10800;53.096;18.328;2023-03-03T06:22:56;-0.60;99.90
21282;DHT22;10800;53.096;18.328;2023-03-03T06:28:02;-0.60;99.90
21282;DHT22;10800;53.096;18.328;2023-03-03T06:33:08;-0.60;99.90
21282;DHT22;10800;53.096;18.328;2023-03-03T06:38:13;-0.60;99.90
21282;DHT22;10800;53.096;18.328;2023-03-03T06:43:19;-0.60;99.90
21282;DHT22;10800;53.096;18.328;2023-03-03T06:48:24;-0.50;99.90
21282;DHT22;10800;53.096;18.328;2023-03-03T06:53:31;-0.50;99.90
21282;DHT22;10800;53.096;18.328;2023-03-03T06:58:38;-0.50;99.90
21282;DHT22;10800;53.096;18.328;2023-03-03T07:03:43;-0.50;99.90
21282;DHT22;10800;53.096;18.328;2023-03-03T07:08:50;-0.50;99.90
21282;DHT22;10800;53.096;18.328;2023-03-03T07:13:56;-0.50;99.90
21282;DHT22;10800;53.096;18.328;2023-03-03T07:19:02;-0.50;99.90
21282;DHT22;10800;53.096;18.328;2023-03-03T07:24:27;-0.50;99.90
21282;DHT22;10800;53.096;18.328;2023-03-03T07:29:33;-0.40;99.90
21282;DHT22;10800;53.096;18.328;2023-03-03T07:34:44;-0.40;99.90
21282;DHT22;10800;53.096;18.328;2023-03-03T07:39:50;-0.40;99.90
21282;DHT22;10800;53.096;18.328;2023-03-03T07:44:57;-0.30;99.90
21282;DHT22;10800;53.096;18.328;2023-03-03T07:50:15;-0.30;99.90
21282;DHT22;10800;53.096;18.328;2023-03-03T08:05:59;-0.10;99.90
21282;DHT22;10800;53.096;18.328;2023-03-03T08:11:06;-0.10;99.90
21282;DHT22;10800;53.096;18.328;2023-03-03T08:21:22;0.10;99.90
21282;DHT22;10800;53.096;18.328;2023-03-03T08:26:28;0.20;99.90
21282;DHT22;10800;53.096;18.328;2023-03-03T08:31:33;0.10;99.90
21282;DHT22;10800;53.096;18.328;2023-03-03T08:36:40;0.20;99.90
21282;DHT22;10800;53.096;18.328;2023-03-03T08:41:45;0.30;99.90
21282;DHT22;10800;53.096;18.328;2023-03-03T08:46:51;0.40;99.90
21282;DHT22;10800;53.096;18.328;2023-03-03T08:51:56;0.40;99.90
21282;DHT22;10800;53.096;18.328;2023-03-03T08:57:01;0.40;99.90
21282;DHT22;10800;53.096;18.328;2023-03-03T09:02:06;0.50;99.90
21282;DHT22;10800;53.096;18.328;2023-03-03T09:07:12;0.60;99.90
21282;DHT22;10800;53.096;18.328;2023-03-03T09:12:32;0.80;99.90
21282;DHT22;10800;53.096;18.328;2023-03-03T09:17:35;0.90;99.90
21282;DHT22;10800;53.096;18.328;2023-03-03T09:22:39;1.00;99.90
21282;DHT22;10800;53.096;18.328;2023-03-03T09:27:45;1.20;99.90
21282;DHT22;10800;53.096;18.328;2023-03-03T09:32:51;1.30;99.90
21282;DHT22;10800;53.096;18.328;2023-03-03T09:37:57;1.40;99.90
21282;DHT22;10800;53.096;18.328;2023-03-03T09:54:00;1.80;99.90
21282;DHT22;10800;53.096;18.328;2023-03-03T09:59:24;1.90;99.90
21282;DHT22;10800;53.096;18.328;2023-03-03T10:10:18;2.10;99.90
21282;DHT22;10800;53.096;18.328;2023-03-03T10:20:58;2.40;99.90
21282;DHT22;10800;53.096;18.328;2023-03-03T10:31:22;2.50;99.90
21282;DHT22;10800;53.096;18.328;2023-03-03T10:36:33;2.60;99.90
21282;DHT22;10800;53.096;18.328;2023-03-03T10:53:24;2.60;99.90
21282;DHT22;10800;53.096;18.328;2023-03-03T11:08:48;2.60;99.90
21282;DHT22;10800;53.096;18.328;2023-03-03T11:19:39;2.70;99.90
21282;DHT22;10800;53.096;18.328;2023-03-03T11:25:00;2.60;99.90
21282;DHT22;10800;53.096;18.328;2023-03-03T11:35:28;2.60;99.90
21282;DHT22;10800;53.096;18.328;2023-03-03T11:40:53;2.70;99.90
21282;DHT22;10800;53.096;18.328;2023-03-03T11:46:10;2.70;99.90
21282;DHT22;10800;53.096;18.328;2023-03-03T11:51:13;2.80;99.90
21282;DHT22;10800;53.096;18.328;2023-03-03T12:01:35;2.80;99.90
21282;DHT22;10800;53.096;18.328;2023-03-03T12:07:03;2.90;99.90
21282;DHT22;10800;53.096;18.328;2023-03-03T12:17:40;2.80;99.90
21282;DHT22;10800;53.096;18.328;2023-03-03T12:28:21;2.80;99.90
21282;DHT22;10800;53.096;18.328;2023-03-03T12:44:34;2.90;99.90
21282;DHT22;10800;53.096;18.328;2023-03-03T12:55:57;3.00;99.90
21282;DHT22;10800;53.096;18.328;2023-03-03T13:06:53;3.10;99.90
21282;DHT22;10800;53.096;18.328;2023-03-03T13:17:50;3.20;99.90
21282;DHT22;10800;53.096;18.328;2023-03-03T13:23:06;3.20;99.90
21282;DHT22;10800;53.096;18.328;2023-03-03T13:33:29;3.30;99.90
21282;DHT22;10800;53.096;18.328;2023-03-03T13:38:47;3.30;99.90
21282;DHT22;10800;53.096;18.328;2023-03-03T13:44:18;3.30;99.90
21282;DHT22;10800;53.096;18.328;2023-03-03T13:55:13;3.30;99.90
21282;DHT22;10800;53.096;18.328;2023-03-03T14:05:51;3.30;99.90
21282;DHT22;10800;53.096;18.328;2023-03-03T14:11:10;3.30;99.90
21282;DHT22;10800;53.096;18.328;2023-03-03T14:22:11;3.40;99.90
21282;DHT22;10800;53.096;18.328;2023-03-03T14:27:20;3.40;99.90
21282;DHT22;10800;53.096;18.328;2023-03-03T14:32:23;3.50;99.90
21282;DHT22;10800;53.096;18.328;2023-03-03T14:37:44;3.60;99.90
21282;DHT22;10800;53.096;18.328;2023-03-03T14:42:57;3.60;99.90
21282;DHT22;10800;53.096;18.328;2023-03-03T14:48:17;3.50;99.90
21282;DHT22;10800;53.096;18.328;2023-03-03T14:53:32;3.40;99.90
21282;DHT22;10800;53.096;18.328;2023-03-03T14:58:43;3.30;99.90
21282;DHT22;10800;53.096;18.328;2023-03-03T15:14:37;3.20;99.90
21282;DHT22;10800;53.096;18.328;2023-03-03T15:25:25;3.30;99.90
21282;DHT22;10800;53.096;18.328;2023-03-03T15:30:39;3.30;99.90
21282;DHT22;10800;53.096;18.328;2023-03-03T15:51:46;3.00;99.90
21282;DHT22;10800;53.096;18.328;2023-03-03T16:02:36;2.80;99.90
21282;DHT22;10800;53.096;18.328;2023-03-03T16:07:56;2.70;99.90
21282;DHT22;10800;53.096;18.328;2023-03-03T16:13:20;2.60;99.90
21282;DHT22;10800;53.096;18.328;2023-03-03T16:18:39;2.60;99.90
21282;DHT22;10800;53.096;18.328;2023-03-03T16:24:05;2.50;99.90
21282;DHT22;10800;53.096;18.328;2023-03-03T16:34:32;2.30;99.90
21282;DHT22;10800;53.096;18.328;2023-03-03T16:39:52;2.30;99.90
21282;DHT22;10800;53.096;18.328;2023-03-03T16:55:41;2.10;99.90
21282;DHT22;10800;53.096;18.328;2023-03-03T17:00:58;2.00;99.90
21282;DHT22;10800;53.096;18.328;2023-03-03T17:11:44;1.90;99.90
21282;DHT22;10800;53.096;18.328;2023-03-03T17:16:55;1.80;99.90
21282;DHT22;10800;53.096;18.328;2023-03-03T17:22:11;1.80;99.90
21282;DHT22;10800;53.096;18.328;2023-03-03T17:38:33;1.70;99.90
21282;DHT22;10800;53.096;18.328;2023-03-03T17:54:44;1.50;99.90
21282;DHT22;10800;53.096;18.328;2023-03-03T18:00:14;1.50;99.90
21282;DHT22;10800;53.096;18.328;2023-03-03T18:16:22;1.30;99.90
21282;DHT22;10800;53.096;18.328;2023-03-03T18:21:43;1.30;99.90
21282;DHT22;10800;53.096;18.328;2023-03-03T18:26:45;1.30;99.90
21282;DHT22;10800;53.096;18.328;2023-03-03T18:48:02;1.20;99.90
21282;DHT22;10800;53.096;18.328;2023-03-03T18:53:26;1.30;99.90
21282;DHT22;10800;53.096;18.328;2023-03-03T18:58:41;1.40;99.90
21282;DHT22;10800;53.096;18.328;2023-03-03T19:08:54;1.50;99.90
21282;DHT22;10800;53.096;18.328;2023-03-03T19:19:33;1.60;99.90
21282;DHT22;10800;53.096;18.328;2023-03-03T19:24:45;1.60;99.90
21282;DHT22;10800;53.096;18.328;2023-03-03T19:30:35;1.70;99.90
21282;DHT22;10800;53.096;18.328;2023-03-03T19:35:53;1.70;99.90
21282;DHT22;10800;53.096;18.328;2023-03-03T19:41:09;1.90;99.90
21282;DHT22;10800;53.096;18.328;2023-03-03T19:46:19;1.90;99.90
21282;DHT22;10800;53.096;18.328;2023-03-03T19:51:23;2.00;99.90
21282;DHT22;10800;53.096;18.328;2023-03-03T20:01:58;2.10;99.90
21282;DHT22;10800;53.096;18.328;2023-03-03T20:18:40;2.10;99.90
21282;DHT22;10800;53.096;18.328;2023-03-03T20:23:53;2.10;99.90
21282;DHT22;10800;53.096;18.328;2023-03-03T20:39:49;2.20;99.90
21282;DHT22;10800;53.096;18.328;2023-03-03T20:50:21;2.30;99.90
21282;DHT22;10800;53.096;18.328;2023-03-03T21:06:13;2.30;99.90
21282;DHT22;10800;53.096;18.328;2023-03-03T21:11:22;2.30;99.90
21282;DHT22;10800;53.096;18.328;2023-03-03T21:16:30;2.30;99.90
21282;DHT22;10800;53.096;18.328;2023-03-03T21:21:38;2.30;99.90
21282;DHT22;10800;53.096;18.328;2023-03-03T21:26:57;2.20;99.90
21282;DHT22;10800;53.096;18.328;2023-03-03T21:31:59;2.20;99.90
21282;DHT22;10800;53.096;18.328;2023-03-03T21:37:10;2.20;99.90
21282;DHT22;10800;53.096;18.328;2023-03-03T21:42:37;2.20;99.90
21282;DHT22;10800;53.096;18.328;2023-03-03T21:47:28;2.20;99.90
21282;DHT22;10800;53.096;18.328;2023-03-03T21:52:33;2.10;99.90
21282;DHT22;10800;53.096;18.328;2023-03-03T21:57:39;2.20;99.90
21282;DHT22;10800;53.096;18.328;2023-03-03T22:02:45;2.20;99.90
21282;DHT22;10800;53.096;18.328;2023-03-03T22:07:51;2.20;99.90
21282;DHT22;10800;53.096;18.328;2023-03-03T22:13:00;2.20;99.90
21282;DHT22;10800;53.096;18.328;2023-03-03T22:18:07;2.20;99.90
21282;DHT22;10800;53.096;18.328;2023-03-03T22:23:14;2.30;99.90
21282;DHT22;10800;53.096;18.328;2023-03-03T22:28:22;2.30;99.90
21282;DHT22;10800;53.096;18.328;2023-03-03T22:33:27;2.30;99.90
21282;DHT22;10800;53.096;18.328;2023-03-03T22:38:33;2.30;99.90
21282;DHT22;10800;53.096;18.328;2023-03-03T22:43:38;2.30;99.90
21282;DHT22;10800;53.096;18.328;2023-03-03T22:48:43;2.30;99.90
21282;DHT22;10800;53.096;18.328;2023-03-03T22:53:49;2.30;99.90
21282;DHT22;10800;53.096;18.328;2023-03-03T22:58:57;2.40;99.90
21282;DHT22;10800;53.096;18.328;2023-03-03T23:04:02;2.40;99.90
21282;DHT22;10800;53.096;18.328;2023-03-03T23:09:07;2.40;99.90
21282;DHT22;10800;53.096;18.328;2023-03-03T23:14:12;2.40;99.90
21282;DHT22;10800;53.096;18.328;2023-03-03T23:19:21;2.40;99.90
21282;DHT22;10800;53.096;18.328;2023-03-03T23:24:26;2.30;99.90
21282;DHT22;10800;53.096;18.328;2023-03-03T23:29:34;2.30;99.90
21282;DHT22;10800;53.096;18.328;2023-03-03T23:34:41;2.30;99.90
21282;DHT22;10800;53.096;18.328;2023-03-03T23:39:46;2.30;99.90
21282;DHT22;10800;53.096;18.328;2023-03-03T23:44:53;2.40;99.90
21282;DHT22;10800;53.096;18.328;2023-03-03T23:49:58;2.40;99.90
21282;DHT22;10800;53.096;18.328;2023-03-03T23:55:06;2.40;99.90
